Time;durP1;ratioP1;P1;durP2;ratioP2;P2;SDS_P1;SDS_P2;PMS_P1;PMS_P2;Temp;Humidity;BMP_temperature;BMP_pressure;BME280_temperature;BME280_humidity;BME280_pressure;Samples;Min_cycle;Max_cycle;Signal;HPM_P1;HPM_P2
2022/08/17 00:01:18;;;;;;;4.25;3.22;;;;;;;;;;5030489;28;20462;-60
2022/08/17 00:03:54;;;;;;;3.10;2.80;;;;;;;;;;5040366;28;20336;-60
2022/08/17 00:06:26;;;;;;;4.97;3.38;;;;;;;;;;5049204;28;20087;-60
2022/08/17 00:08:52;;;;;;;6.32;3.75;;;;;;;;;;5049417;28;20382;-60
2022/08/17 00:11:32;;;;;;;4.50;3.70;;;;;;;;;;5051172;28;20040;-60
2022/08/17 00:14:03;;;;;;;3.90;3.08;;;;;;;;;;5051523;28;20117;-60
2022/08/17 00:16:35;;;;;;;5.15;3.80;;;;;;;;;;5051446;28;20021;-60
2022/08/17 00:19:03;;;;;;;5.82;3.85;;;;;;;;;;5050309;28;20041;-60
2022/08/17 00:21:36;;;;;;;5.25;3.88;;;;;;;;;;5050379;28;20044;-60
2022/08/17 00:24:02;;;;;;;4.95;3.42;;;;;;;;;;5051417;28;20049;-60
2022/08/17 00:26:42;;;;;;;6.22;3.95;;;;;;;;;;5066087;28;20029;-60
2022/08/17 00:29:13;;;;;;;4.22;3.33;;;;;;;;;;5050175;28;20059;-59
2022/08/17 00:31:54;;;;;;;5.80;3.78;;;;;;;;;;5066212;28;20096;-60
2022/08/17 00:34:46;;;;;;;4.18;3.78;;;;;;;;;;5051092;28;20022;-60
2022/08/17 00:37:16;;;;;;;3.90;3.50;;;;;;;;;;5050952;28;20509;-60
2022/08/17 00:39:43;;;;;;;6.20;3.75;;;;;;;;;;5065516;28;20068;-60
2022/08/17 00:42:17;;;;;;;5.78;4.07;;;;;;;;;;5050960;28;20036;-60
2022/08/17 00:44:44;;;;;;;4.68;3.47;;;;;;;;;;5066526;28;20033;-60
2022/08/17 00:47:16;;;;;;;5.20;4.03;;;;;;;;;;5051016;28;20021;-60
2022/08/17 00:49:46;;;;;;;4.88;3.70;;;;;;;;;;5053830;28;20028;-60
2022/08/17 00:52:20;;;;;;;4.40;3.78;;;;;;;;;;5055256;28;20041;-60
2022/08/17 00:54:56;;;;;;;4.25;3.22;;;;;;;;;;5053641;28;20060;-60
2022/08/17 00:57:36;;;;;;;5.18;4.28;;;;;;;;;;5054581;28;20021;-60
2022/08/17 01:00:25;;;;;;;4.90;4.40;;;;;;;;;;5053775;28;20483;-60
2022/08/17 01:02:57;;;;;;;4.85;3.88;;;;;;;;;;5056134;28;20291;-60
2022/08/17 01:05:30;;;;;;;4.45;3.85;;;;;;;;;;5054132;28;20517;-60
2022/08/17 01:08:03;;;;;;;4.78;4.07;;;;;;;;;;5054613;28;20075;-60
2022/08/17 01:10:35;;;;;;;5.35;3.83;;;;;;;;;;5052924;28;20037;-60
2022/08/17 01:13:10;;;;;;;4.00;3.00;;;;;;;;;;5053989;28;20544;-60
2022/08/17 01:15:42;;;;;;;3.90;3.33;;;;;;;;;;5054023;28;20028;-60
2022/08/17 01:18:27;;;;;;;4.82;3.97;;;;;;;;;;5054382;28;20025;-60
2022/08/17 01:21:19;;;;;;;5.35;3.58;;;;;;;;;;5053447;28;20143;-60
2022/08/17 01:23:54;;;;;;;4.47;4.07;;;;;;;;;;5054704;28;20025;-60
2022/08/17 01:26:27;;;;;;;5.15;3.80;;;;;;;;;;5054295;28;20021;-60
2022/08/17 01:28:59;;;;;;;4.60;3.90;;;;;;;;;;5050914;28;20049;-60
2022/08/17 01:31:32;;;;;;;3.83;3.40;;;;;;;;;;5053188;28;20040;-60
2022/08/17 01:34:08;;;;;;;10.75;4.85;;;;;;;;;;5054496;28;20025;-60
2022/08/17 01:36:47;;;;;;;7.75;4.38;;;;;;;;;;5053721;28;20024;-60
2022/08/17 01:39:37;;;;;;;5.20;4.13;;;;;;;;;;5053595;28;20112;-60
2022/08/17 01:42:04;;;;;;;;;;;;;;;;;;5052661;28;20052;-60
2022/08/17 01:45:00;;;;;;;4.15;3.75;;;;;;;;;;5053782;28;20370;-60
2022/08/17 01:47:29;;;;;;;4.47;3.65;;;;;;;;;;5052384;28;20132;-60
2022/08/17 01:50:14;;;;;;;4.75;4.22;;;;;;;;;;5052625;28;20020;-60
2022/08/17 01:52:50;;;;;;;7.30;3.90;;;;;;;;;;5053060;28;20048;-60
2022/08/17 01:55:19;;;;;;;4.45;4.05;;;;;;;;;;5053417;28;20025;-60
2022/08/17 01:57:50;;;;;;;6.63;4.18;;;;;;;;;;5052806;28;20033;-60
2022/08/17 02:00:24;;;;;;;4.53;3.92;;;;;;;;;;5051578;28;20486;-60
2022/08/17 02:02:53;;;;;;;5.50;4.35;;;;;;;;;;5053536;28;20041;-60
2022/08/17 02:05:23;;;;;;;5.13;4.20;;;;;;;;;;5053319;28;20096;-60
2022/08/17 02:07:51;;;;;;;4.32;3.92;;;;;;;;;;5053973;28;20106;-60
2022/08/17 02:10:29;;;;;;;4.45;3.67;;;;;;;;;;5067847;28;20079;-60
2022/08/17 02:12:56;;;;;;;6.15;4.50;;;;;;;;;;5068831;28;20398;-60
2022/08/17 02:15:34;;;;;;;4.30;3.80;;;;;;;;;;5053778;28;20112;-60
2022/08/17 02:18:17;;;;;;;4.45;3.72;;;;;;;;;;5068617;28;20056;-60
2022/08/17 02:20:47;;;;;;;5.80;4.65;;;;;;;;;;5067016;28;20048;-60
2022/08/17 02:23:43;;;;;;;;;;;;;;;;;;;;;
2022/08/17 02:26:33;;;;;;;6.68;3.78;;;;;;;;;;5054030;28;20401;-60
2022/08/17 02:29:06;;;;;;;7.38;3.88;;;;;;;;;;5052674;28;20120;-60
2022/08/17 02:31:38;;;;;;;4.75;3.42;;;;;;;;;;5052769;28;20033;-60
2022/08/17 02:34:05;;;;;;;5.25;3.97;;;;;;;;;;5053181;28;20031;-60
2022/08/17 02:36:42;;;;;;;7.40;4.20;;;;;;;;;;5050974;28;20967;-60
2022/08/17 02:39:25;;;;;;;5.88;4.43;;;;;;;;;;5051240;28;20021;-60
2022/08/17 02:42:11;;;;;;;;;;;;;;;;;;;;;
2022/08/17 02:44:38;;;;;;;5.10;3.65;;;;;;;;;;5052979;28;20029;-60
2022/08/17 02:47:12;;;;;;;4.65;3.50;;;;;;;;;;5052555;28;20021;-60
2022/08/17 02:52:40;;;;;;;3.63;3.05;;;;;;;;;;5052579;28;20084;-60
2022/08/17 02:55:16;;;;;;;4.68;4.03;;;;;;;;;;5052671;28;20086;-60
2022/08/17 02:57:52;;;;;;;5.32;3.78;;;;;;;;;;5052737;28;20071;-60
2022/08/17 03:00:28;;;;;;;3.97;3.55;;;;;;;;;;5051963;28;20441;-60
2022/08/17 03:03:07;;;;;;;4.78;3.60;;;;;;;;;;5052733;28;20372;-60
2022/08/17 03:05:38;;;;;;;5.35;4.10;;;;;;;;;;5052401;28;20032;-60
2022/08/17 03:08:16;;;;;;;5.03;3.58;;;;;;;;;;5067563;28;20041;-60
2022/08/17 03:10:52;;;;;;;4.88;4.07;;;;;;;;;;5066554;28;20021;-60
2022/08/17 03:13:26;;;;;;;4.90;3.42;;;;;;;;;;5051198;28;20566;-60
2022/08/17 03:15:56;;;;;;;5.75;3.10;;;;;;;;;;5066816;28;20073;-60
2022/08/17 03:18:31;;;;;;;4.50;3.10;;;;;;;;;;5067974;28;20068;-60
2022/08/17 03:21:03;;;;;;;5.03;3.83;;;;;;;;;;5051201;28;20045;-60
2022/08/17 03:23:31;;;;;;;4.10;3.42;;;;;;;;;;5052695;28;20021;-60
2022/08/17 03:26:09;;;;;;;4.88;3.90;;;;;;;;;;5052259;28;20028;-60
2022/08/17 03:28:50;;;;;;;6.65;3.78;;;;;;;;;;5052816;28;20109;-60
2022/08/17 03:34:30;;;;;;;4.20;3.80;;;;;;;;;;5051354;28;20041;-60
2022/08/17 03:37:09;;;;;;;5.60;3.78;;;;;;;;;;5049667;28;20029;-60
2022/08/17 03:39:53;;;;;;;5.15;4.07;;;;;;;;;;5063876;28;20040;-60
2022/08/17 03:42:26;;;;;;;7.22;4.15;;;;;;;;;;5049873;28;20431;-60
2022/08/17 03:45:07;;;;;;;4.80;4.18;;;;;;;;;;5051876;28;20101;-60
2022/08/17 03:59:11;;;;;;;6.97;3.58;;;;;;;;;;5048589;28;20094;-60
2022/08/17 04:01:47;;;;;;;5.38;4.05;;;;;;;;;;5042305;28;20021;-60
2022/08/17 04:04:27;;;;;;;7.18;3.92;;;;;;;;;;5051453;28;20029;-60
2022/08/17 04:10:08;;;;;;;5.15;4.20;;;;;;;;;;5038600;28;20123;-60
2022/08/17 04:12:48;;;;;;;4.07;3.67;;;;;;;;;;5051013;28;20039;-60
2022/08/17 04:15:20;;;;;;;4.57;3.83;;;;;;;;;;5051563;28;20018;-60
2022/08/17 04:17:51;;;;;;;5.63;4.43;;;;;;;;;;5047303;28;20112;-60
2022/08/17 04:20:21;;;;;;;5.07;4.03;;;;;;;;;;5048736;28;20029;-60
2022/08/17 04:23:08;;;;;;;4.80;4.20;;;;;;;;;;5051146;28;20025;-60
2022/08/17 04:25:38;;;;;;;4.43;3.95;;;;;;;;;;5054645;28;20037;-60
2022/08/17 04:28:17;;;;;;;5.35;3.95;;;;;;;;;;5054852;28;20079;-60
2022/08/17 04:30:47;;;;;;;9.40;3.85;;;;;;;;;;5050029;28;20404;-60
2022/08/17 04:33:22;;;;;;;8.18;3.92;;;;;;;;;;5053351;28;20033;-60
2022/08/17 04:36:02;;;;;;;4.63;3.67;;;;;;;;;;5053515;28;20053;-60
2022/08/17 04:38:39;;;;;;;8.18;3.53;;;;;;;;;;5072757;28;20128;-60
2022/08/17 04:46:55;;;;;;;6.90;3.30;;;;;;;;;;5053149;28;20118;-60
2022/08/17 04:49:29;;;;;;;3.80;3.15;;;;;;;;;;5048949;28;20162;-60
2022/08/17 04:52:00;;;;;;;6.35;4.63;;;;;;;;;;5054359;28;20068;-60
2022/08/17 04:54:48;;;;;;;4.55;3.50;;;;;;;;;;5053390;28;20120;-60
2022/08/17 04:57:26;;;;;;;3.15;2.63;;;;;;;;;;5054152;28;20021;-60
2022/08/17 05:00:01;;;;;;;4.10;3.60;;;;;;;;;;5052204;28;20186;-60
2022/08/17 05:02:36;;;;;;;4.22;3.45;;;;;;;;;;5052390;28;20032;-60
2022/08/17 05:05:20;;;;;;;4.63;4.03;;;;;;;;;;5054587;28;20048;-60
2022/08/17 05:08:12;;;;;;;4.55;3.83;;;;;;;;;;5053785;28;20039;-60
2022/08/17 05:10:45;;;;;;;4.13;3.70;;;;;;;;;;5053300;28;20074;-60
2022/08/17 05:13:24;;;;;;;6.32;3.83;;;;;;;;;;5052704;28;20032;-60
2022/08/17 05:15:59;;;;;;;6.25;4.78;;;;;;;;;;5052539;28;20037;-60
2022/08/17 05:18:26;;;;;;;4.05;3.65;;;;;;;;;;5049994;28;20033;-60
2022/08/17 05:21:15;;;;;;;5.97;3.35;;;;;;;;;;5052390;28;20029;-60
2022/08/17 05:23:53;;;;;;;4.90;3.88;;;;;;;;;;5054365;28;20044;-60
2022/08/17 05:26:28;;;;;;;6.30;4.30;;;;;;;;;;5052976;28;20524;-60
2022/08/17 05:29:17;;;;;;;4.38;3.92;;;;;;;;;;5050146;28;20037;-60
2022/08/17 05:31:53;;;;;;;6.32;4.85;;;;;;;;;;5053649;28;20032;-60
2022/08/17 05:34:28;;;;;;;8.75;4.05;;;;;;;;;;5053680;28;20032;-60
2022/08/17 05:37:21;;;;;;;5.97;4.50;;;;;;;;;;5048735;28;20025;-60
2022/08/17 05:40:04;;;;;;;5.07;3.95;;;;;;;;;;5050172;28;20037;-60
2022/08/17 05:42:45;;;;;;;6.35;3.38;;;;;;;;;;5052536;28;20479;-60
2022/08/17 05:45:26;;;;;;;3.90;3.30;;;;;;;;;;5050965;28;20040;-60
2022/08/17 05:47:59;;;;;;;5.53;4.32;;;;;;;;;;5048036;28;20029;-60
2022/08/17 05:50:33;;;;;;;4.43;3.65;;;;;;;;;;5051540;28;20035;-60
2022/08/17 05:53:17;;;;;;;4.32;3.63;;;;;;;;;;5047656;28;20506;-60
2022/08/17 05:56:01;;;;;;;4.53;3.53;;;;;;;;;;5049824;28;20492;-60
2022/08/17 05:58:38;;;;;;;3.92;3.35;;;;;;;;;;5047073;28;20601;-60
2022/08/17 06:01:46;;;;;;;4.00;3.47;;;;;;;;;;5045928;28;20385;-60
2022/08/17 06:04:37;;;;;;;4.13;3.72;;;;;;;;;;5052230;28;20029;-60
2022/08/17 06:07:19;;;;;;;4.28;3.45;;;;;;;;;;5049994;28;20033;-60
2022/08/17 06:10:06;;;;;;;4.35;3.70;;;;;;;;;;5065704;28;20029;-61
2022/08/17 06:13:03;;;;;;;4.40;3.58;;;;;;;;;;5049026;28;20593;-61
2022/08/17 06:15:50;;;;;;;5.22;3.78;;;;;;;;;;5047686;28;20033;-61
2022/08/17 06:18:27;;;;;;;3.92;3.53;;;;;;;;;;5052056;28;20043;-61
2022/08/17 06:21:11;;;;;;;4.82;3.58;;;;;;;;;;5050841;28;20485;-61
2022/08/17 06:23:42;;;;;;;4.20;3.55;;;;;;;;;;5050802;28;20059;-61
2022/08/17 06:26:19;;;;;;;5.07;3.97;;;;;;;;;;5050554;28;20371;-61
2022/08/17 06:29:11;;;;;;;4.72;4.25;;;;;;;;;;5047696;28;20025;-61
2022/08/17 06:31:43;;;;;;;7.25;5.32;;;;;;;;;;5047602;28;20291;-61
2022/08/17 06:34:19;;;;;;;4.90;4.38;;;;;;;;;;5053600;28;20025;-61
2022/08/17 06:37:17;;;;;;;5.13;4.63;;;;;;;;;;5048270;28;20502;-61
2022/08/17 06:40:05;;;;;;;5.07;4.30;;;;;;;;;;5050905;28;20047;-61
2022/08/17 06:42:51;;;;;;;4.15;3.60;;;;;;;;;;5046420;28;20071;-61
2022/08/17 06:45:25;;;;;;;6.18;4.82;;;;;;;;;;5064691;28;20550;-61
2022/08/17 06:47:55;;;;;;;4.85;4.25;;;;;;;;;;5051396;28;20074;-61
2022/08/17 06:50:44;;;;;;;7.72;4.85;;;;;;;;;;5048566;28;20028;-61
2022/08/17 06:53:48;;;;;;;8.48;5.05;;;;;;;;;;5051068;28;20028;-61
2022/08/17 06:56:52;;;;;;;6.15;4.03;;;;;;;;;;5047807;28;20029;-61
2022/08/17 06:59:32;;;;;;;5.40;4.65;;;;;;;;;;5044731;28;20075;-61
2022/08/17 07:02:31;;;;;;;;;;;;;;;;;;;;;
2022/08/17 07:04:51;;;;;;;8.18;4.57;;;;;;;;;;5048511;28;20021;-61
2022/08/17 07:13:05;;;;;;;9.95;4.65;;;;;;;;;;5049819;28;20112;-61
2022/08/17 07:15:44;;;;;;;4.07;3.38;;;;;;;;;;5048977;28;20042;-61
2022/08/17 07:18:10;;;;;;;4.28;3.88;;;;;;;;;;5049266;28;20025;-61
2022/08/17 07:20:54;;;;;;;4.60;3.92;;;;;;;;;;5046872;28;20033;-61
2022/08/17 07:23:37;;;;;;;4.00;3.40;;;;;;;;;;5048625;28;20604;-61
2022/08/17 07:26:12;;;;;;;5.65;4.00;;;;;;;;;;5039903;28;20052;-61
2022/08/17 07:28:39;;;;;;;4.53;3.65;;;;;;;;;;5047657;28;20025;-61
2022/08/17 07:31:22;;;;;;;;;;;;;;;;;;;;;
2022/08/17 07:34:01;;;;;;;7.07;4.28;;;;;;;;;;5048092;28;20528;-61
2022/08/17 07:36:32;;;;;;;4.95;4.10;;;;;;;;;;5048829;28;20036;-61
2022/08/17 07:39:14;;;;;;;4.47;4.07;;;;;;;;;;5043674;28;20230;-61
2022/08/17 07:41:53;;;;;;;7.40;4.32;;;;;;;;;;5053374;28;20032;-61
2022/08/17 07:44:19;;;;;;;5.05;4.55;;;;;;;;;;5032463;28;20029;-61
2022/08/17 07:49:41;;;;;;;6.75;4.43;;;;;;;;;;5048784;28;20071;-61
2022/08/17 07:52:10;;;;;;;5.45;4.95;;;;;;;;;;5046887;28;20455;-61
2022/08/17 07:54:40;;;;;;;6.30;3.97;;;;;;;;;;5048264;28;20029;-61
2022/08/17 07:57:23;;;;;;;7.70;4.78;;;;;;;;;;5047096;28;20467;-61
2022/08/17 08:00:01;;;;;;;6.78;4.05;;;;;;;;;;5050904;28;20033;-61
2022/08/17 08:02:31;;;;;;;4.50;4.00;;;;;;;;;;5052608;28;20629;-61
2022/08/17 08:05:32;;;;;;;7.43;4.55;;;;;;;;;;5051645;28;20493;-61
2022/08/17 08:08:00;;;;;;;7.75;3.67;;;;;;;;;;5052310;28;20112;-61
2022/08/17 08:10:49;;;;;;;6.15;4.65;;;;;;;;;;5051550;28;20028;-61
2022/08/17 08:13:25;;;;;;;4.55;3.85;;;;;;;;;;5049017;28;20409;-61
2022/08/17 08:16:12;;;;;;;4.25;3.85;;;;;;;;;;5052078;28;20083;-61
2022/08/17 08:18:47;;;;;;;4.85;3.88;;;;;;;;;;5048341;28;20370;-61
2022/08/17 08:22:02;;;;;;;4.80;4.30;;;;;;;;;;5051679;28;20087;-61
2022/08/17 08:24:37;;;;;;;6.00;4.60;;;;;;;;;;5048768;28;20080;-61
2022/08/17 08:27:37;;;;;;;4.60;3.45;;;;;;;;;;5050986;28;20020;-61
2022/08/17 08:30:13;;;;;;;5.60;4.75;;;;;;;;;;5045029;28;20102;-61
2022/08/17 08:32:41;;;;;;;5.38;4.50;;;;;;;;;;5048294;28;20067;-61
2022/08/17 08:35:29;;;;;;;5.60;4.28;;;;;;;;;;5050414;28;20020;-61
2022/08/17 08:37:55;;;;;;;5.88;4.60;;;;;;;;;;5050058;28;20025;-61
2022/08/17 08:40:40;;;;;;;10.15;4.57;;;;;;;;;;5047963;28;20040;-61
2022/08/17 08:43:13;;;;;;;7.60;4.53;;;;;;;;;;5042472;28;20029;-61
2022/08/17 08:46:01;;;;;;;7.28;4.45;;;;;;;;;;5050720;28;22102;-61
2022/08/17 08:48:49;;;;;;;5.15;4.10;;;;;;;;;;5050565;28;20033;-61
2022/08/17 08:51:34;;;;;;;5.50;3.40;;;;;;;;;;5051224;28;20128;-61
2022/08/17 08:54:03;;;;;;;8.95;4.15;;;;;;;;;;5049184;28;20517;-61
2022/08/17 08:56:50;;;;;;;5.88;3.70;;;;;;;;;;5051886;28;20032;-61
2022/08/17 08:59:35;;;;;;;5.03;4.05;;;;;;;;;;5046387;28;20116;-61
2022/08/17 09:02:32;;;;;;;;;;;;;;;;;;;;;
2022/08/17 09:05:19;;;;;;;6.88;4.13;;;;;;;;;;5053049;28;20037;-61
2022/08/17 09:07:48;;;;;;;7.22;4.38;;;;;;;;;;5052460;28;20467;-61
2022/08/17 09:10:14;;;;;;;8.27;4.68;;;;;;;;;;5052349;28;20024;-61
2022/08/17 09:12:57;;;;;;;5.05;4.30;;;;;;;;;;5049328;28;20037;-61
2022/08/17 09:15:33;;;;;;;5.97;4.18;;;;;;;;;;5029364;28;20561;-61
2022/08/17 09:18:15;;;;;;;4.45;4.05;;;;;;;;;;5033041;28;20068;-61
2022/08/17 09:20:50;;;;;;;5.97;4.30;;;;;;;;;;5045625;28;20131;-61
2022/08/17 09:23:25;;;;;;;5.72;3.88;;;;;;;;;;5050059;28;20040;-61
2022/08/17 09:26:02;;;;;;;4.53;4.05;;;;;;;;;;5040524;28;20139;-61
2022/08/17 09:28:47;;;;;;;7.30;4.57;;;;;;;;;;5034584;28;20057;-61
2022/08/17 09:31:34;;;;;;;4.45;3.88;;;;;;;;;;5045707;28;20195;-61
2022/08/17 09:34:02;;;;;;;8.77;4.63;;;;;;;;;;5051429;28;20044;-61
2022/08/17 09:36:34;;;;;;;10.00;3.97;;;;;;;;;;5048166;28;20029;-61
2022/08/17 09:39:09;;;;;;;8.45;4.97;;;;;;;;;;5038727;28;20121;-61
2022/08/17 09:41:58;;;;;;;8.88;4.53;;;;;;;;;;5041452;28;20159;-61
2022/08/17 09:44:37;;;;;;;6.47;4.70;;;;;;;;;;5045260;28;20037;-61
2022/08/17 09:47:25;;;;;;;7.47;4.55;;;;;;;;;;5029301;28;20280;-61
2022/08/17 09:50:20;;;;;;;7.47;4.03;;;;;;;;;;5037396;28;20029;-61
2022/08/17 09:52:54;;;;;;;5.28;4.05;;;;;;;;;;5049684;28;20131;-61
2022/08/17 09:55:39;;;;;;;4.40;3.90;;;;;;;;;;5050793;28;20024;-61
2022/08/17 09:58:22;;;;;;;5.18;3.95;;;;;;;;;;5047818;28;20059;-61
2022/08/17 10:01:15;;;;;;;4.88;3.70;;;;;;;;;;5048731;28;20037;-61
2022/08/17 10:03:49;;;;;;;3.70;3.28;;;;;;;;;;5055288;28;20040;-61
2022/08/17 10:06:30;;;;;;;4.30;3.28;;;;;;;;;;5050367;28;20534;-61
2022/08/17 10:09:26;;;;;;;4.20;3.80;;;;;;;;;;5047926;28;20029;-61
2022/08/17 10:12:25;;;;;;;6.07;3.92;;;;;;;;;;5050091;28;20554;-61
2022/08/17 10:15:08;;;;;;;3.35;3.03;;;;;;;;;;5049753;28;20120;-61
2022/08/17 10:17:54;;;;;;;6.65;3.55;;;;;;;;;;5045755;28;20036;-61
2022/08/17 10:20:35;;;;;;;4.10;3.00;;;;;;;;;;5039571;28;20374;-61
2022/08/17 10:26:22;;;;;;;4.18;3.15;;;;;;;;;;5045728;28;20055;-61
2022/08/17 10:29:24;;;;;;;3.88;2.80;;;;;;;;;;5050095;28;20032;-61
2022/08/17 10:31:58;;;;;;;5.18;2.75;;;;;;;;;;5040364;28;20110;-61
2022/08/17 10:34:46;;;;;;;6.30;3.35;;;;;;;;;;5044469;28;20048;-61
2022/08/17 10:37:27;;;;;;;4.97;2.53;;;;;;;;;;5047538;28;20118;-61
2022/08/17 10:40:12;;;;;;;2.78;2.10;;;;;;;;;;5042455;28;20028;-61
2022/08/17 10:42:54;;;;;;;3.85;2.88;;;;;;;;;;5044872;28;20387;-61
2022/08/17 10:45:43;;;;;;;3.22;2.55;;;;;;;;;;5045098;28;20041;-61
2022/08/17 10:48:28;;;;;;;3.13;2.70;;;;;;;;;;5044059;28;20471;-61
2022/08/17 10:51:08;;;;;;;3.53;2.72;;;;;;;;;;5046203;28;20032;-61
2022/08/17 10:53:44;;;;;;;4.10;2.75;;;;;;;;;;5047382;28;20037;-61
2022/08/17 10:56:14;;;;;;;4.47;2.78;;;;;;;;;;5045257;28;20120;-61
2022/08/17 10:58:54;;;;;;;3.90;2.58;;;;;;;;;;5047301;28;20036;-61
2022/08/17 11:01:42;;;;;;;3.65;2.80;;;;;;;;;;5041494;28;20033;-61
2022/08/17 11:04:19;;;;;;;4.47;3.10;;;;;;;;;;5047510;28;20032;-61
2022/08/17 11:07:00;;;;;;;4.03;2.80;;;;;;;;;;5043744;28;20025;-61
2022/08/17 11:09:33;;;;;;;3.40;2.60;;;;;;;;;;5040633;28;20633;-61
2022/08/17 11:12:07;;;;;;;4.30;3.10;;;;;;;;;;5042207;28;20068;-61
2022/08/17 11:14:49;;;;;;;4.50;2.63;;;;;;;;;;5048172;28;20482;-61
2022/08/17 11:17:30;;;;;;;5.80;3.22;;;;;;;;;;5062329;28;20098;-61
2022/08/17 11:20:15;;;;;;;3.05;2.63;;;;;;;;;;5042619;28;20021;-61
2022/08/17 11:22:47;;;;;;;5.20;2.60;;;;;;;;;;5045921;28;20825;-61
2022/08/17 11:25:32;;;;;;;3.35;2.92;;;;;;;;;;5045667;28;20017;-61
2022/08/17 11:28:15;;;;;;;3.83;2.90;;;;;;;;;;5042636;28;20025;-61
2022/08/17 11:31:04;;;;;;;4.13;2.60;;;;;;;;;;5043914;28;20386;-61
2022/08/17 11:33:48;;;;;;;5.43;2.75;;;;;;;;;;5046369;28;20037;-61
2022/08/17 11:36:17;;;;;;;3.17;2.58;;;;;;;;;;5049223;28;20128;-61
2022/08/17 11:38:56;;;;;;;4.50;3.25;;;;;;;;;;5044275;28;20501;-61
2022/08/17 11:41:52;;;;;;;3.28;2.25;;;;;;;;;;5062824;28;20040;-61
2022/08/17 11:44:39;;;;;;;5.22;3.10;;;;;;;;;;5045603;28;20123;-61
2022/08/17 11:53:36;;;;;;;5.80;2.83;;;;;;;;;;5048722;28;20079;-61
2022/08/17 11:56:08;;;;;;;3.42;2.67;;;;;;;;;;5046721;28;20033;-61
2022/08/17 11:58:43;;;;;;;3.30;2.67;;;;;;;;;;5060860;28;20064;-61
2022/08/17 12:01:39;;;;;;;5.47;2.53;;;;;;;;;;5044675;28;20029;-61
2022/08/17 12:04:24;;;;;;;3.63;2.75;;;;;;;;;;5044651;28;20029;-61
2022/08/17 12:06:56;;;;;;;3.80;3.15;;;;;;;;;;5043324;28;20459;-61
2022/08/17 12:09:27;;;;;;;4.90;2.95;;;;;;;;;;5062233;28;20032;-61
2022/08/17 12:12:10;;;;;;;6.95;2.83;;;;;;;;;;5049024;28;20475;-61
2022/08/17 12:14:38;;;;;;;3.38;2.25;;;;;;;;;;5044966;28;20478;-61
2022/08/17 12:17:07;;;;;;;3.22;2.58;;;;;;;;;;5026788;28;20075;-61
2022/08/17 12:19:55;;;;;;;3.65;2.75;;;;;;;;;;5027410;28;20029;-61
2022/08/17 12:22:30;;;;;;;2.83;2.45;;;;;;;;;;5023073;28;21432;-61
2022/08/17 12:25:10;;;;;;;3.95;2.40;;;;;;;;;;5025060;28;20025;-61
2022/08/17 12:27:48;;;;;;;3.72;2.80;;;;;;;;;;5039562;28;20067;-61
2022/08/17 12:30:17;;;;;;;4.90;3.03;;;;;;;;;;5022989;28;20040;-61
2022/08/17 12:32:55;;;;;;;3.78;2.72;;;;;;;;;;5026173;28;20072;-61
2022/08/17 12:35:33;;;;;;;3.60;3.00;;;;;;;;;;5039392;28;20033;-61
2022/08/17 12:38:00;;;;;;;3.45;2.28;;;;;;;;;;5025016;28;20025;-61
2022/08/17 12:40:32;;;;;;;4.80;3.03;;;;;;;;;;5027096;28;20080;-61
2022/08/17 12:43:07;;;;;;;3.58;2.70;;;;;;;;;;5024092;28;20029;-59
2022/08/17 12:45:38;;;;;;;4.35;2.70;;;;;;;;;;5027942;28;20029;-58
2022/08/17 12:48:13;;;;;;;3.40;2.33;;;;;;;;;;5028383;28;20041;-61
2022/08/17 12:50:51;;;;;;;3.38;2.72;;;;;;;;;;5038799;28;20032;-61
2022/08/17 12:53:28;;;;;;;3.50;2.78;;;;;;;;;;5047984;28;20029;-61
2022/08/17 12:56:01;;;;;;;3.50;2.78;;;;;;;;;;5067227;28;20033;-61
2022/08/17 12:59:00;;;;;;;3.97;2.97;;;;;;;;;;5050750;28;20065;-61
2022/08/17 13:04:23;;;;;;;3.55;3.05;;;;;;;;;;5064400;28;20122;-60
2022/08/17 13:06:54;;;;;;;5.07;2.88;;;;;;;;;;5050396;28;20394;-60
2022/08/17 13:09:27;;;;;;;3.75;2.78;;;;;;;;;;5047948;28;20357;-59
2022/08/17 13:11:55;;;;;;;4.95;2.97;;;;;;;;;;5032819;28;20394;-60
2022/08/17 13:14:21;;;;;;;3.95;3.05;;;;;;;;;;5026687;28;20634;-59
2022/08/17 13:16:58;;;;;;;3.28;2.78;;;;;;;;;;5028167;28;20032;-59
2022/08/17 13:19:25;;;;;;;3.20;2.80;;;;;;;;;;5027242;28;20061;-59
2022/08/17 13:22:00;;;;;;;4.00;3.15;;;;;;;;;;5028210;28;20052;-59
2022/08/17 13:24:33;;;;;;;4.45;2.75;;;;;;;;;;5027843;28;20045;-60
2022/08/17 13:27:06;;;;;;;4.22;3.03;;;;;;;;;;5025778;28;20078;-60
2022/08/17 13:29:37;;;;;;;4.13;2.97;;;;;;;;;;5028347;28;20138;-59
2022/08/17 13:32:06;;;;;;;4.38;3.40;;;;;;;;;;5028913;28;20056;-60
2022/08/17 13:34:44;;;;;;;4.22;2.92;;;;;;;;;;5026118;28;20036;-60
2022/08/17 13:37:40;;;;;;;5.13;2.92;;;;;;;;;;5025710;28;20033;-59
2022/08/17 13:40:06;;;;;;;4.78;3.22;;;;;;;;;;5028302;28;20033;-60
2022/08/17 13:42:49;;;;;;;3.55;2.92;;;;;;;;;;5039627;28;20039;-59
2022/08/17 13:45:30;;;;;;;6.72;3.20;;;;;;;;;;5050533;28;20048;-60
2022/08/17 13:48:05;;;;;;;4.30;3.47;;;;;;;;;;5049637;28;20069;-59
2022/08/17 13:50:34;;;;;;;3.35;2.92;;;;;;;;;;5048788;28;20029;-59
2022/08/17 13:53:06;;;;;;;4.35;2.97;;;;;;;;;;5061887;28;20025;-60
2022/08/17 13:55:34;;;;;;;3.53;3.05;;;;;;;;;;5035562;28;20099;-59
2022/08/17 13:58:01;;;;;;;3.50;3.15;;;;;;;;;;5043528;28;20079;-60
2022/08/17 14:00:30;;;;;;;3.50;2.70;;;;;;;;;;5033463;28;20272;-59
2022/08/17 14:02:57;;;;;;;4.78;3.47;;;;;;;;;;5049040;28;20442;-59
2022/08/17 14:05:26;;;;;;;5.60;3.38;;;;;;;;;;5049080;28;20029;-59
2022/08/17 14:07:57;;;;;;;4.23;3.17;;;;;;;;;;5051478;28;20055;-60
2022/08/17 14:10:26;;;;;;;2.88;2.38;;;;;;;;;;5064898;28;20412;-60
2022/08/17 14:12:59;;;;;;;4.10;3.20;;;;;;;;;;5051175;28;20596;-60
2022/08/17 14:15:26;;;;;;;6.60;2.97;;;;;;;;;;5051005;28;20629;-60
2022/08/17 14:17:55;;;;;;;6.05;3.13;;;;;;;;;;5032567;28;20024;-60
2022/08/17 14:20:23;;;;;;;5.00;3.10;;;;;;;;;;5047570;28;20032;-59
2022/08/17 14:22:55;;;;;;;4.55;3.00;;;;;;;;;;5050965;28;20032;-60
2022/08/17 14:25:25;;;;;;;3.75;2.97;;;;;;;;;;5047374;28;20030;-60
2022/08/17 14:27:54;;;;;;;4.80;2.43;;;;;;;;;;5050528;28;20074;-60
2022/08/17 14:30:26;;;;;;;3.30;2.85;;;;;;;;;;5046589;28;20037;-59
2022/08/17 14:32:55;;;;;;;8.75;3.47;;;;;;;;;;5047669;28;20040;-59
2022/08/17 14:35:22;;;;;;;7.28;2.85;;;;;;;;;;5031487;28;20021;-60
2022/08/17 14:37:49;;;;;;;3.47;2.60;;;;;;;;;;5048629;28;20021;-60
2022/08/17 14:40:18;;;;;;;3.60;2.80;;;;;;;;;;5039748;28;20497;-60
2022/08/17 14:42:54;;;;;;;3.95;2.88;;;;;;;;;;5046099;28;20025;-60
2022/08/17 14:45:27;;;;;;;3.33;2.50;;;;;;;;;;5047133;28;20112;-59
2022/08/17 14:47:53;;;;;;;4.00;2.75;;;;;;;;;;5061222;28;20028;-60
2022/08/17 14:50:20;;;;;;;4.10;2.95;;;;;;;;;;5045713;28;20112;-60
2022/08/17 14:52:47;;;;;;;6.88;2.90;;;;;;;;;;5043309;28;20557;-60
2022/08/17 14:55:16;;;;;;;4.38;2.97;;;;;;;;;;5065843;28;20064;-60
2022/08/17 14:57:45;;;;;;;3.20;2.58;;;;;;;;;;5049093;28;20067;-60
2022/08/17 15:00:19;;;;;;;3.33;3.00;;;;;;;;;;5048664;28;20025;-60
2022/08/17 15:02:47;;;;;;;3.90;2.53;;;;;;;;;;5047607;28;20035;-60
2022/08/17 15:05:14;;;;;;;3.00;2.33;;;;;;;;;;5047502;28;20102;-60
2022/08/17 15:07:42;;;;;;;2.80;2.35;;;;;;;;;;5046427;28;20029;-59
2022/08/17 15:10:19;;;;;;;4.45;3.10;;;;;;;;;;5047344;28;20029;-59
2022/08/17 15:12:45;;;;;;;4.90;2.58;;;;;;;;;;5047075;28;20039;-60
2022/08/17 15:15:13;;;;;;;3.03;2.33;;;;;;;;;;5046772;28;20044;-60
2022/08/17 15:17:41;;;;;;;3.55;2.30;;;;;;;;;;5049426;28;20129;-60
2022/08/17 15:20:17;;;;;;;3.00;2.05;;;;;;;;;;5045234;28;20127;-60
2022/08/17 15:22:51;;;;;;;4.38;1.90;;;;;;;;;;5044190;28;20091;-60
2022/08/17 15:25:26;;;;;;;3.35;2.72;;;;;;;;;;5046204;28;20128;-60
2022/08/17 15:27:54;;;;;;;3.33;2.50;;;;;;;;;;5048916;28;20108;-60
2022/08/17 15:30:22;;;;;;;3.22;2.40;;;;;;;;;;5046168;28;20029;-60
2022/08/17 15:32:50;;;;;;;3.10;2.33;;;;;;;;;;5030332;28;20025;-60
2022/08/17 15:35:25;;;;;;;5.75;3.00;;;;;;;;;;5041970;28;20025;-60
2022/08/17 15:37:51;;;;;;;4.13;2.90;;;;;;;;;;5047799;28;20021;-60
2022/08/17 15:40:19;;;;;;;3.67;2.38;;;;;;;;;;5047105;28;20041;-60
2022/08/17 15:42:49;;;;;;;4.78;3.75;;;;;;;;;;5048055;28;20112;-59
2022/08/17 15:45:16;;;;;;;3.97;2.37;;;;;;;;;;5061123;28;20039;-60
2022/08/17 15:47:42;;;;;;;6.13;3.05;;;;;;;;;;5049328;28;20280;-60
2022/08/17 15:50:17;;;;;;;2.72;2.30;;;;;;;;;;5048250;28;20441;-60
2022/08/17 15:52:46;;;;;;;4.50;2.70;;;;;;;;;;5046207;28;20127;-60
2022/08/17 15:55:17;;;;;;;3.95;2.80;;;;;;;;;;5049453;28;20323;-60
2022/08/17 15:57:44;;;;;;;5.15;2.47;;;;;;;;;;5032742;28;20437;-60
2022/08/17 16:00:13;;;;;;;3.17;2.47;;;;;;;;;;5063978;28;20056;-60
2022/08/17 16:02:47;;;;;;;3.10;2.40;;;;;;;;;;5049138;28;20112;-60
2022/08/17 16:05:18;;;;;;;4.30;3.03;;;;;;;;;;5049027;28;20028;-60
2022/08/17 16:07:44;;;;;;;4.15;2.67;;;;;;;;;;5025747;28;20029;-60
2022/08/17 16:10:10;;;;;;;5.88;2.60;;;;;;;;;;5064175;28;20037;-60
2022/08/17 16:12:39;;;;;;;3.45;2.88;;;;;;;;;;5049303;28;20048;-59
2022/08/17 16:15:09;;;;;;;3.42;2.78;;;;;;;;;;5061328;28;20700;-60
2022/08/17 16:17:38;;;;;;;4.13;2.30;;;;;;;;;;5042370;28;20052;-60
2022/08/17 16:20:05;;;;;;;4.27;3.03;;;;;;;;;;5043209;28;20035;-60
2022/08/17 16:22:39;;;;;;;3.42;2.80;;;;;;;;;;5051278;28;20032;-60
2022/08/17 16:25:13;;;;;;;3.95;2.78;;;;;;;;;;5048413;28;20057;-60
2022/08/17 16:27:39;;;;;;;3.10;2.58;;;;;;;;;;5044586;28;20805;-60
2022/08/17 16:30:06;;;;;;;4.55;2.90;;;;;;;;;;5043985;28;20082;-60
2022/08/17 16:32:35;;;;;;;3.67;2.63;;;;;;;;;;5051112;28;20044;-60